Time;durP1;ratioP1;P1;durP2;ratioP2;P2;SDS_P1;SDS_P2;PMS_P1;PMS_P2;Temp;Humidity;BMP_temperature;BMP_pressure;BME280_temperature;BME280_humidity;BME280_pressure;Samples;Min_cycle;Max_cycle;Signal;HPM_P1;HPM_P2
2023/08/17 00:01:48;;;;;;;17.33;10.43;;;20.20;93.60;;;;;;4901326;29;20138;-86
2023/08/17 00:04:14;;;;;;;18.10;12.05;;;20.20;93.70;;;;;;4903760;29;20064;-87
2023/08/17 00:06:40;;;;;;;18.63;11.30;;;20.20;93.80;;;;;;4919631;29;20040;-85
2023/08/17 00:09:06;;;;;;;18.42;10.50;;;20.10;93.90;;;;;;4915699;29;20041;-85
2023/08/17 00:11:33;;;;;;;22.33;11.32;;;20.20;93.90;;;;;;4903832;29;20036;-86
2023/08/17 00:13:59;;;;;;;22.80;11.68;;;20.10;93.90;;;;;;4904196;29;20029;-83
2023/08/17 00:16:25;;;;;;;23.67;11.50;;;20.10;94.00;;;;;;4898571;29;20101;-84
2023/08/17 00:18:51;;;;;;;23.33;11.00;;;20.10;94.10;;;;;;4891566;29;20053;-86
2023/08/17 00:21:17;;;;;;;18.88;10.45;;;20.10;94.30;;;;;;4886418;29;20388;-87
2023/08/17 00:23:43;;;;;;;28.33;11.40;;;20.10;94.30;;;;;;4884492;29;20049;-86
2023/08/17 00:26:09;;;;;;;27.40;11.82;;;20.10;94.30;;;;;;4900550;29;20366;-87
2023/08/17 00:28:35;;;;;;;24.00;11.98;;;20.10;94.50;;;;;;4927123;29;20021;-84
2023/08/17 00:31:01;;;;;;;22.77;11.80;;;20.00;94.60;;;;;;4914343;29;20080;-86
2023/08/17 00:33:27;;;;;;;23.20;12.02;;;20.00;94.70;;;;;;4912288;29;20025;-85
2023/08/17 00:35:53;;;;;;;24.50;11.18;;;20.00;94.70;;;;;;4914126;29;20047;-87
2023/08/17 00:38:19;;;;;;;18.50;10.85;;;20.00;94.80;;;;;;4901788;29;20028;-86
2023/08/17 00:40:45;;;;;;;22.33;11.23;;;20.00;94.90;;;;;;4916260;29;20032;-86
2023/08/17 00:43:11;;;;;;;20.08;11.32;;;19.90;94.90;;;;;;4903043;29;20048;-85
2023/08/17 00:45:37;;;;;;;38.15;13.73;;;20.00;95.10;;;;;;4898824;29;20025;-86
2023/08/17 00:48:07;;;;;;;29.90;12.20;;;19.90;95.10;;;;;;4898934;29;20131;-86
2023/08/17 00:50:34;;;;;;;27.10;12.20;;;19.90;95.10;;;;;;4896922;29;20019;-87
2023/08/17 00:53:01;;;;;;;25.13;12.70;;;19.90;95.40;;;;;;4900507;29;20063;-87
2023/08/17 00:55:27;;;;;;;20.95;12.27;;;19.90;95.60;;;;;;4898710;29;20115;-88
2023/08/17 00:57:55;;;;;;;31.70;13.70;;;19.80;95.60;;;;;;4899555;29;20131;-88
2023/08/17 01:00:23;;;;;;;26.02;12.68;;;19.80;95.60;;;;;;4899295;29;20024;-84
2023/08/17 01:02:49;;;;;;;22.08;11.40;;;19.80;95.60;;;;;;4899179;29;20243;-85
2023/08/17 01:05:15;;;;;;;31.42;11.60;;;19.70;95.80;;;;;;4897508;29;20525;-86
2023/08/17 01:07:41;;;;;;;22.60;13.05;;;19.70;95.90;;;;;;4901104;29;20036;-84
2023/08/17 01:10:08;;;;;;;24.63;11.77;;;19.70;96.00;;;;;;4903259;29;20020;-87
2023/08/17 01:12:44;;;;;;;24.67;12.40;;;19.70;96.20;;;;;;4903819;29;20028;-86
2023/08/17 01:15:37;;;;;;;35.42;12.40;;;19.70;96.10;;;;;;4899234;29;20044;-85
2023/08/17 01:18:28;;;;;;;24.52;12.43;;;19.60;96.10;;;;;;4899226;29;20025;-86
2023/08/17 01:20:55;;;;;;;19.20;11.77;;;19.60;96.30;;;;;;4897874;29;20048;-85
2023/08/17 01:23:22;;;;;;;22.10;11.38;;;19.60;96.50;;;;;;4898937;29;20034;-84
2023/08/17 01:25:48;;;;;;;20.30;11.23;;;19.60;96.50;;;;;;4897908;29;20497;-87
2023/08/17 01:28:14;;;;;;;30.83;13.38;;;19.60;96.50;;;;;;4899247;29;20043;-85
2023/08/17 01:31:18;;;;;;;24.02;12.07;;;19.60;96.60;;;;;;4898821;29;20525;-84
2023/08/17 01:33:49;;;;;;;23.05;11.25;;;19.60;96.50;;;;;;4917350;29;20047;-85
2023/08/17 01:36:53;;;;;;;25.20;12.45;;;19.60;96.80;;;;;;4911013;29;20043;-85
2023/08/17 01:39:23;;;;;;;19.17;11.98;;;19.50;96.70;;;;;;4897108;29;20486;-87
2023/08/17 01:41:51;;;;;;;16.88;10.93;;;19.50;97.00;;;;;;4915137;29;20025;-86
2023/08/17 01:44:17;;;;;;;29.23;12.30;;;19.50;97.00;;;;;;4904431;29;20478;-86
2023/08/17 01:46:42;;;;;;;28.35;12.48;;;19.50;97.20;;;;;;4898363;29;20029;-87
2023/08/17 01:49:08;;;;;;;19.55;11.65;;;19.40;97.20;;;;;;4898477;29;20036;-86
2023/08/17 01:51:34;;;;;;;18.48;11.32;;;19.40;97.40;;;;;;4898551;29;20020;-87
2023/08/17 01:54:00;;;;;;;25.10;13.23;;;19.40;97.40;;;;;;4897495;29;20043;-86
2023/08/17 01:56:25;;;;;;;25.05;13.55;;;19.40;97.50;;;;;;4897830;29;20028;-86
2023/08/17 01:58:51;;;;;;;27.55;13.52;;;19.40;97.60;;;;;;4899350;29;20469;-86
2023/08/17 02:01:17;;;;;;;21.88;12.98;;;19.40;97.60;;;;;;4897006;29;20033;-86
2023/08/17 02:03:43;;;;;;;32.17;13.02;;;19.40;97.60;;;;;;4902021;29;20036;-87
2023/08/17 02:06:09;;;;;;;25.33;13.20;;;19.40;97.60;;;;;;4899012;29;20510;-87
2023/08/17 02:08:36;;;;;;;19.83;13.13;;;19.40;97.80;;;;;;4900481;29;20035;-87
2023/08/17 02:11:02;;;;;;;31.52;13.27;;;19.40;97.90;;;;;;4910371;29;20024;-86
2023/08/17 02:13:27;;;;;;;27.35;13.27;;;19.40;97.90;;;;;;4919966;29;20037;-86
2023/08/17 02:15:53;;;;;;;18.73;12.85;;;19.40;97.90;;;;;;4933820;29;20040;-83
2023/08/17 02:18:19;;;;;;;20.02;12.18;;;19.40;97.80;;;;;;4912863;29;20025;-85
2023/08/17 02:20:45;;;;;;;26.30;13.35;;;19.40;97.90;;;;;;4908183;29;20024;-86
2023/08/17 02:23:11;;;;;;;25.33;13.32;;;19.40;98.30;;;;;;4915229;29;20039;-84
2023/08/17 02:25:40;;;;;;;28.35;13.77;;;19.40;98.10;;;;;;4905477;29;20142;-87
2023/08/17 02:28:06;;;;;;;26.00;13.80;;;19.40;98.10;;;;;;4898301;29;20132;-87
2023/08/17 02:30:32;;;;;;;26.10;13.57;;;19.40;98.10;;;;;;4898480;29;20107;-87
2023/08/17 02:32:58;;;;;;;27.38;12.80;;;19.40;98.30;;;;;;4911578;29;20032;-89
2023/08/17 02:35:24;;;;;;;27.48;13.70;;;19.40;98.30;;;;;;4899931;29;20028;-87
2023/08/17 02:37:50;;;;;;;22.08;13.05;;;19.50;98.20;;;;;;4909173;29;20044;-88
2023/08/17 02:40:16;;;;;;;24.83;13.45;;;19.50;98.10;;;;;;4914778;29;20505;-88
2023/08/17 02:42:41;;;;;;;22.20;13.02;;;19.50;98.10;;;;;;4910198;29;20082;-88
2023/08/17 02:45:09;;;;;;;29.33;13.48;;;19.60;98.30;;;;;;4899706;29;20025;-89
2023/08/17 02:47:35;;;;;;;22.38;12.80;;;19.60;98.20;;;;;;4891592;29;20048;-88
2023/08/17 02:50:00;;;;;;;21.83;14.38;;;19.70;98.30;;;;;;4916984;29;20032;-88
2023/08/17 02:52:26;;;;;;;24.48;14.63;;;19.70;98.10;;;;;;4900937;29;20020;-88
2023/08/17 02:54:52;;;;;;;23.60;13.88;;;19.80;97.80;;;;;;4908606;29;20028;-87
2023/08/17 02:57:20;;;;;;;25.95;14.80;;;19.90;97.70;;;;;;4916380;29;20020;-88
2023/08/17 02:59:46;;;;;;;26.52;15.05;;;19.90;97.50;;;;;;4914731;29;20048;-88
2023/08/17 03:02:11;;;;;;;30.80;14.55;;;20.00;97.50;;;;;;4907876;29;20024;-89
2023/08/17 03:04:37;;;;;;;32.40;14.38;;;20.00;97.50;;;;;;4900623;29;20039;-88
2023/08/17 03:07:03;;;;;;;26.92;14.45;;;20.00;97.40;;;;;;4918454;29;20029;-90
2023/08/17 03:09:29;;;;;;;28.02;13.63;;;20.10;97.20;;;;;;4903528;29;20569;-87
2023/08/17 03:11:55;;;;;;;35.45;14.00;;;20.10;97.20;;;;;;4886539;29;20107;-88
2023/08/17 03:14:21;;;;;;;25.27;13.50;;;20.20;97.20;;;;;;4899041;29;20116;-88
2023/08/17 03:16:47;;;;;;;47.08;16.23;;;20.20;97.00;;;;;;4900079;29;20443;-88
2023/08/17 03:19:13;;;;;;;38.28;16.42;;;20.40;96.90;;;;;;4903918;29;20040;-89
2023/08/17 03:21:39;;;;;;;30.02;15.43;;;20.50;96.60;;;;;;4918434;29;20041;-87
2023/08/17 03:24:05;;;;;;;40.97;15.82;;;20.50;96.50;;;;;;4913135;29;20119;-88
2023/08/17 03:26:34;;;;;;;34.23;16.27;;;20.50;96.40;;;;;;4904562;29;20021;-93
2023/08/17 03:29:08;;;;;;;50.60;17.08;;;20.60;96.20;;;;;;4897689;29;20044;-91
2023/08/17 03:31:34;;;;;;;30.45;15.27;;;20.70;96.10;;;;;;4883803;29;20043;-89
2023/08/17 03:34:00;;;;;;;23.83;14.52;;;20.80;95.90;;;;;;4904824;29;20058;-89
2023/08/17 03:36:26;;;;;;;30.23;15.27;;;20.80;95.60;;;;;;4897352;29;20036;-91
2023/08/17 03:38:51;;;;;;;32.15;15.20;;;20.90;95.40;;;;;;4900113;29;20032;-89
2023/08/17 03:41:18;;;;;;;25.42;14.38;;;21.00;95.30;;;;;;4901339;29;20064;-89
2023/08/17 03:43:44;;;;;;;24.33;14.93;;;21.10;95.10;;;;;;4901671;29;20470;-89
2023/08/17 03:46:10;;;;;;;33.30;14.80;;;21.20;95.00;;;;;;4904973;29;20047;-90
2023/08/17 03:48:35;;;;;;;21.88;13.30;;;21.20;94.70;;;;;;4901455;29;20032;-89
2023/08/17 03:51:01;;;;;;;23.05;13.00;;;21.30;94.50;;;;;;4914059;29;20072;-88
2023/08/17 03:53:27;;;;;;;19.73;12.15;;;21.40;94.10;;;;;;4902323;29;20088;-89
2023/08/17 03:55:53;;;;;;;23.70;12.65;;;21.40;93.60;;;;;;4901556;29;20025;-88
2023/08/17 03:58:19;;;;;;;26.55;12.98;;;21.50;93.30;;;;;;4912059;29;20064;-89
2023/08/17 04:00:52;;;;;;;20.73;12.57;;;21.60;93.10;;;;;;4927848;29;20068;-88
2023/08/17 04:03:18;;;;;;;23.00;11.88;;;21.70;92.80;;;;;;4907742;29;20726;-87
2023/08/17 04:05:44;;;;;;;21.67;12.60;;;21.70;92.30;;;;;;4901917;29;20044;-87
2023/08/17 04:08:10;;;;;;;23.25;13.00;;;21.80;92.10;;;;;;4906113;29;20036;-87
2023/08/17 04:10:38;;;;;;;18.85;12.88;;;21.90;92.10;;;;;;4909494;29;20029;-88
2023/08/17 04:13:04;;;;;;;19.23;12.57;;;22.00;91.80;;;;;;4901464;29;20029;-87
2023/08/17 04:15:30;;;;;;;19.65;12.75;;;22.10;91.50;;;;;;4909685;29;20044;-87
2023/08/17 04:17:56;;;;;;;16.30;11.75;;;22.10;91.30;;;;;;4910156;29;20104;-86
2023/08/17 04:20:22;;;;;;;21.30;12.60;;;22.20;91.10;;;;;;4907880;29;20040;-84
2023/08/17 04:22:48;;;;;;;24.60;12.43;;;22.30;90.80;;;;;;4910446;29;20057;-85
2023/08/17 04:25:15;;;;;;;21.88;12.80;;;22.40;90.60;;;;;;4905242;29;20029;-87
2023/08/17 04:27:41;;;;;;;16.50;11.63;;;22.50;90.90;;;;;;4909680;29;20024;-87
2023/08/17 04:30:07;;;;;;;30.83;13.18;;;22.60;90.50;;;;;;4921706;29;20446;-89
2023/08/17 04:32:33;;;;;;;20.10;11.87;;;22.70;90.00;;;;;;4912347;29;20346;-85
2023/08/17 04:34:59;;;;;;;22.67;10.93;;;22.80;90.00;;;;;;4906669;29;20279;-86
2023/08/17 04:37:25;;;;;;;13.93;9.23;;;22.90;90.30;;;;;;4901058;29;20092;-86
2023/08/17 04:39:51;;;;;;;10.43;8.15;;;23.00;87.70;;;;;;4914265;29;20036;-87
2023/08/17 04:42:19;;;;;;;18.52;10.77;;;23.00;85.80;;;;;;4925745;29;20073;-87
2023/08/17 04:44:46;;;;;;;12.15;8.52;;;23.10;87.30;;;;;;4895750;29;20405;-88
2023/08/17 04:47:12;;;;;;;12.98;7.93;;;23.30;85.50;;;;;;4906464;29;20024;-88
2023/08/17 04:49:38;;;;;;;11.05;8.55;;;23.90;84.80;;;;;;4923941;29;20040;-89
2023/08/17 04:52:04;;;;;;;11.15;7.95;;;24.70;80.90;;;;;;4932765;29;20032;-89
2023/08/17 04:54:30;;;;;;;13.03;8.17;;;25.60;78.10;;;;;;4925426;29;20032;-89
2023/08/17 04:56:56;;;;;;;11.85;7.68;;;26.30;74.40;;;;;;4903753;29;20020;-89
2023/08/17 04:59:21;;;;;;;11.88;8.70;;;27.10;73.00;;;;;;4919877;29;20115;-91
2023/08/17 05:01:47;;;;;;;17.55;9.13;;;27.70;70.10;;;;;;4904382;29;20446;-89
2023/08/17 05:04:13;;;;;;;12.05;7.72;;;28.10;68.20;;;;;;4918670;29;20040;-91
2023/08/17 05:06:39;;;;;;;13.90;7.43;;;28.60;65.80;;;;;;4914397;29;20048;-87
2023/08/17 05:09:05;;;;;;;9.82;6.60;;;28.90;63.90;;;;;;4916572;29;20370;-89
2023/08/17 05:11:31;;;;;;;14.13;8.10;;;29.60;63.40;;;;;;4906500;29;20020;-89
2023/08/17 05:13:57;;;;;;;10.10;8.77;;;30.10;61.50;;;;;;4903294;29;20075;-92
2023/08/17 05:16:25;;;;;;;13.57;7.05;;;30.60;60.20;;;;;;4904322;29;20029;-90
2023/08/17 05:18:51;;;;;;;9.80;7.03;;;30.80;58.70;;;;;;4910531;29;20104;-92
2023/08/17 05:21:16;;;;;;;9.33;7.50;;;31.20;57.20;;;;;;4906137;29;20064;-88
2023/08/17 05:23:42;;;;;;;10.13;6.73;;;31.60;56.10;;;;;;4904100;29;20040;-89
2023/08/17 05:26:08;;;;;;;16.70;8.07;;;;;;;;;;4914238;29;20037;-91
2023/08/17 05:28:35;;;;;;;15.20;6.27;;;;;;;;;;4913752;29;20052;-89
2023/08/17 05:31:06;;;;;;;8.70;6.35;;;32.50;52.20;;;;;;4910074;29;20260;-89
2023/08/17 05:33:32;;;;;;;9.52;6.40;;;32.50;52.60;;;;;;4901570;29;20035;-90
2023/08/17 05:35:58;;;;;;;16.90;6.90;;;33.20;53.20;;;;;;4910430;29;20073;-91
2023/08/17 05:38:24;;;;;;;11.80;6.33;;;33.50;52.10;;;;;;4902316;29;20493;-89
2023/08/17 05:40:56;;;;;;;11.50;6.87;;;34.10;50.40;;;;;;4909056;29;20111;-92
2023/08/17 05:43:22;;;;;;;12.10;7.45;;;34.50;49.70;;;;;;4913181;29;20124;-88
2023/08/17 05:45:48;;;;;;;12.93;7.20;;;34.60;48.60;;;;;;4911321;29;20020;-90
2023/08/17 05:48:13;;;;;;;11.20;7.00;;;35.00;48.60;;;;;;4893918;29;20108;-89
2023/08/17 05:50:43;;;;;;;14.03;6.80;;;35.30;47.40;;;;;;4903938;29;20039;-92
2023/08/17 05:53:09;;;;;;;12.13;6.93;;;35.70;47.10;;;;;;4910564;29;20033;-91
2023/08/17 05:55:34;;;;;;;10.90;7.25;;;36.50;46.60;;;;;;4915665;29;20039;-92
2023/08/17 05:58:01;;;;;;;8.55;5.72;;;37.40;45.40;;;;;;4923986;29;20044;-88
2023/08/17 06:00:27;;;;;;;9.95;5.88;;;38.00;43.90;;;;;;4918331;29;20077;-88
2023/08/17 06:02:54;;;;;;;9.53;5.67;;;38.50;43.00;;;;;;4905951;29;20044;-90
2023/08/17 06:05:26;;;;;;;7.85;5.28;;;38.70;42.70;;;;;;4904165;29;20024;-91
2023/08/17 06:07:51;;;;;;;8.07;5.72;;;38.70;42.30;;;;;;4910301;29;20033;-89
2023/08/17 06:10:17;;;;;;;10.60;5.22;;;39.20;41.80;;;;;;4910910;29;20115;-91
2023/08/17 06:12:43;;;;;;;7.85;4.45;;;39.40;40.80;;;;;;4900446;29;20024;-89
2023/08/17 06:15:09;;;;;;;10.20;4.20;;;39.40;40.40;;;;;;4904817;29;20032;-89
2023/08/17 06:17:35;;;;;;;8.07;4.40;;;39.60;40.10;;;;;;4901708;29;20025;-91
2023/08/17 06:20:01;;;;;;;6.45;4.22;;;39.70;39.80;;;;;;4898671;29;20052;-91
2023/08/17 06:22:26;;;;;;;8.57;4.35;;;39.80;40.00;;;;;;4897556;29;20156;-89
2023/08/17 06:24:52;;;;;;;5.20;3.00;;;40.10;39.30;;;;;;4899077;29;20025;-93
2023/08/17 06:27:19;;;;;;;3.88;2.92;;;39.60;38.80;;;;;;4899078;29;20099;-92
2023/08/17 06:29:45;;;;;;;7.90;4.05;;;39.40;39.30;;;;;;4901216;29;20063;-90
2023/08/17 06:32:11;;;;;;;5.38;2.40;;;39.40;39.70;;;;;;4897248;29;20120;-89
2023/08/17 06:34:37;;;;;;;5.88;3.13;;;39.70;39.10;;;;;;4897987;29;20029;-90
2023/08/17 06:37:04;;;;;;;7.32;2.75;;;39.90;39.00;;;;;;4900561;29;20509;-91
2023/08/17 06:39:30;;;;;;;6.63;3.25;;;;;;;;;;4901355;29;20040;-90
2023/08/17 06:41:56;;;;;;;;;;;;;;;;;;4901801;29;20029;-92
2023/08/17 06:44:21;;;;;;;5.20;3.38;;;40.60;39.10;;;;;;4902433;29;19935;-91
2023/08/17 06:46:47;;;;;;;4.60;2.42;;;40.00;38.00;;;;;;4902920;29;20096;-90
2023/08/17 06:49:14;;;;;;;5.57;2.72;;;39.60;38.10;;;;;;4911205;29;20062;-92
2023/08/17 06:51:40;;;;;;;8.85;2.90;;;39.40;38.60;;;;;;4891432;29;20063;-91
2023/08/17 06:54:09;;;;;;;3.42;2.10;;;39.10;38.70;;;;;;4908169;29;20482;-91
2023/08/17 06:56:35;;;;;;;9.00;3.33;;;39.00;39.00;;;;;;4899974;29;20081;-94
2023/08/17 06:59:01;;;;;;;12.30;3.95;;;39.10;38.90;;;;;;4902666;29;20040;-89
2023/08/17 07:01:27;;;;;;;5.68;2.60;;;39.40;39.00;;;;;;4914385;29;20057;-89
2023/08/17 07:03:52;;;;;;;2.38;1.92;;;39.60;38.40;;;;;;4901501;29;20036;-91
2023/08/17 07:06:19;;;;;;;3.88;2.35;;;39.60;38.30;;;;;;4902251;29;20036;-92
2023/08/17 07:08:45;;;;;;;5.32;2.35;;;39.40;38.40;;;;;;4906365;29;20009;-90
2023/08/17 07:11:11;;;;;;;9.38;3.08;;;39.20;38.00;;;;;;4908672;29;20035;-92
2023/08/17 07:13:37;;;;;;;10.88;2.65;;;39.60;38.30;;;;;;4901243;29;20032;-90
2023/08/17 07:16:03;;;;;;;11.93;3.08;;;40.30;37.80;;;;;;4903163;29;20028;-90
2023/08/17 07:18:29;;;;;;;9.25;2.95;;;;;;;;;;4900679;29;20068;-89
2023/08/17 07:20:55;;;;;;;6.35;2.83;;;;;;;;;;4900876;29;20389;-91
2023/08/17 07:23:21;;;;;;;6.97;2.47;;;40.90;37.40;;;;;;4915679;29;20039;-90
2023/08/17 07:25:46;;;;;;;6.97;2.70;;;42.40;35.40;;;;;;4901929;29;20448;-89
2023/08/17 07:28:14;;;;;;;4.60;2.17;;;42.10;36.00;;;;;;4901922;29;20060;-90
2023/08/17 07:30:40;;;;;;;5.18;2.33;;;42.40;35.70;;;;;;4908623;29;20027;-90
2023/08/17 07:33:06;;;;;;;;;;;42.50;35.00;;;;;;4922319;29;20035;-90
2023/08/17 07:35:31;;;;;;;4.03;2.60;;;41.60;35.90;;;;;;4918024;29;20387;-89
2023/08/17 07:37:57;;;;;;;8.90;2.72;;;40.70;36.40;;;;;;4903931;29;20402;-89
2023/08/17 07:40:23;;;;;;;;;;;40.80;36.80;;;;;;4906275;29;20033;-89
2023/08/17 07:42:49;;;;;;;5.93;2.95;;;41.50;36.80;;;;;;4913371;29;19915;-88
2023/08/17 07:45:14;;;;;;;;;;;42.20;35.60;;;;;;4933046;29;20020;-90
2023/08/17 07:47:40;;;;;;;6.78;1.98;;;43.10;36.10;;;;;;4926776;29;19922;-88
2023/08/17 07:50:07;;;;;;;5.75;2.38;;;43.90;34.40;;;;;;4910893;29;20032;-90
2023/08/17 07:52:33;;;;;;;5.75;2.40;;;44.40;33.70;;;;;;4905050;29;20017;-90
2023/08/17 07:54:59;;;;;;;5.32;2.17;;;44.50;33.00;;;;;;4915006;29;20034;-90
2023/08/17 07:57:25;;;;;;;5.65;2.38;;;43.70;33.30;;;;;;4905861;29;20020;-88
2023/08/17 07:59:53;;;;;;;;;;;43.20;33.50;;;;;;4904173;29;20127;-89
2023/08/17 08:02:19;;;;;;;10.30;5.72;;;42.50;34.40;;;;;;4903845;29;19907;-89
2023/08/17 08:04:45;;;;;;;4.50;2.45;;;42.10;34.80;;;;;;4914509;29;20035;-88
2023/08/17 08:07:11;;;;;;;;;;;42.50;33.90;;;;;;4911934;29;20025;-90
2023/08/17 08:09:36;;;;;;;4.18;3.10;;;42.10;33.70;;;;;;4909768;29;19907;-89
2023/08/17 08:12:02;;;;;;;;;;;41.50;34.80;;;;;;4906477;29;20021;-88
2023/08/17 08:14:29;;;;;;;4.43;2.28;;;41.60;35.40;;;;;;4911783;29;19974;-87
2023/08/17 08:16:55;;;;;;;5.38;2.70;;;42.20;34.40;;;;;;4917075;29;20021;-90
2023/08/17 08:19:21;;;;;;;3.67;2.42;;;42.40;33.80;;;;;;4916261;29;20045;-88
2023/08/17 08:21:46;;;;;;;4.20;2.25;;;42.70;33.80;;;;;;4917132;29;20032;-89
2023/08/17 08:24:12;;;;;;;5.03;3.03;;;43.50;33.60;;;;;;4911471;29;20079;-90
2023/08/17 08:26:38;;;;;;;7.85;3.22;;;43.70;32.70;;;;;;4909754;29;20039;-89
2023/08/17 08:29:04;;;;;;;7.50;3.03;;;43.40;32.70;;;;;;4916044;29;20064;-90
2023/08/17 08:31:30;;;;;;;3.85;2.30;;;43.30;33.30;;;;;;4912834;29;20455;-87
2023/08/17 08:33:55;;;;;;;4.72;2.70;;;42.50;33.40;;;;;;4905419;29;20064;-87
2023/08/17 08:36:21;;;;;;;7.03;3.72;;;42.20;33.80;;;;;;4915573;29;20362;-88
2023/08/17 08:38:47;;;;;;;9.95;2.92;;;42.50;34.00;;;;;;4916806;29;20054;-87
2023/08/17 08:41:13;;;;;;;5.75;2.58;;;42.70;33.80;;;;;;4904749;29;20033;-90
2023/08/17 08:43:39;;;;;;;5.85;4.20;;;42.90;33.80;;;;;;4906061;29;20032;-89
2023/08/17 08:46:05;;;;;;;4.70;2.65;;;43.30;33.60;;;;;;4916811;29;20024;-88
2023/08/17 08:48:32;;;;;;;5.60;2.83;;;43.20;33.70;;;;;;4915235;29;20032;-89
2023/08/17 08:51:00;;;;;;;9.15;2.97;;;43.30;34.00;;;;;;4913529;29;20024;-89
2023/08/17 08:53:47;;;;;;;5.00;3.42;;;43.30;33.30;;;;;;4913652;29;20123;-89
2023/08/17 08:56:18;;;;;;;9.10;4.20;;;42.80;33.20;;;;;;4905452;29;20024;-89
2023/08/17 08:58:46;;;;;;;6.57;3.95;;;43.00;33.40;;;;;;4900661;29;20016;-89
2023/08/17 09:01:12;;;;;;;5.85;3.03;;;42.40;33.20;;;;;;4900682;29;20020;-88
2023/08/17 09:03:38;;;;;;;7.25;3.20;;;42.30;33.40;;;;;;4900844;29;20098;-90
2023/08/17 09:06:05;;;;;;;7.38;3.17;;;43.20;33.30;;;;;;4900837;29;20036;-87
2023/08/17 09:08:31;;;;;;;5.35;3.65;;;43.90;33.20;;;;;;4906830;29;20127;-89
2023/08/17 09:10:57;;;;;;;7.53;4.25;;;44.10;33.00;;;;;;4909913;29;20028;-90
2023/08/17 09:13:23;;;;;;;5.32;3.30;;;44.50;33.10;;;;;;4900316;29;20025;-88
2023/08/17 09:15:49;;;;;;;6.65;3.15;;;44.90;32.50;;;;;;4899801;29;20549;-89
2023/08/17 09:18:16;;;;;;;4.15;3.13;;;45.40;32.10;;;;;;4901366;29;20028;-89
2023/08/17 09:20:47;;;;;;;5.75;3.35;;;45.40;31.90;;;;;;4901559;29;20025;-88
2023/08/17 09:23:22;;;;;;;6.32;2.95;;;44.90;31.80;;;;;;4909762;29;20040;-89
2023/08/17 09:25:51;;;;;;;5.50;3.27;;;45.00;32.00;;;;;;4918352;29;20032;-88
2023/08/17 09:28:18;;;;;;;5.40;2.75;;;45.50;31.70;;;;;;4902172;29;20299;-88
2023/08/17 09:30:54;;;;;;;4.53;2.22;;;45.60;31.20;;;;;;4903678;29;20060;-90
2023/08/17 09:33:28;;;;;;;8.60;2.92;;;45.40;31.20;;;;;;4924880;29;20458;-87
2023/08/17 09:35:55;;;;;;;8.35;2.95;;;45.30;31.70;;;;;;4928209;29;20104;-90
2023/08/17 09:38:21;;;;;;;8.35;3.28;;;45.60;31.50;;;;;;4899994;29;20032;-89
2023/08/17 09:40:48;;;;;;;9.32;3.28;;;45.80;31.50;;;;;;4900737;29;20089;-91
2023/08/17 09:43:15;;;;;;;7.95;4.60;;;45.60;31.50;;;;;;4899065;29;20083;-89
2023/08/17 09:45:48;;;;;;;11.15;3.20;;;45.20;31.40;;;;;;4903848;29;20485;-89
2023/08/17 09:48:17;;;;;;;7.00;2.78;;;45.10;31.80;;;;;;4906323;29;20032;-89
2023/08/17 09:50:46;;;;;;;8.68;3.25;;;45.00;31.50;;;;;;4913511;29;20095;-90
2023/08/17 09:53:14;;;;;;;7.10;4.07;;;45.40;31.50;;;;;;4899559;29;20025;-89
2023/08/17 09:55:42;;;;;;;10.75;2.70;;;46.00;31.60;;;;;;4900543;29;20088;-90
2023/08/17 09:58:14;;;;;;;19.23;6.35;;;46.20;30.90;;;;;;4914522;29;20474;-90
2023/08/17 10:00:46;;;;;;;8.07;3.20;;;46.30;31.30;;;;;;4910650;29;20048;-88
2023/08/17 10:03:14;;;;;;;9.70;3.40;;;45.90;31.20;;;;;;4899165;29;20033;-88
2023/08/17 10:05:42;;;;;;;6.40;2.90;;;45.80;31.50;;;;;;4900371;29;20028;-89
2023/08/17 10:08:11;;;;;;;5.07;2.90;;;46.00;30.90;;;;;;4899090;29;20032;-89
2023/08/17 10:10:40;;;;;;;4.60;2.80;;;46.10;30.90;;;;;;4899589;29;20017;-88
2023/08/17 10:13:11;;;;;;;3.78;2.85;;;46.20;30.70;;;;;;4898790;29;20112;-87
2023/08/17 10:16:24;;;;;;;7.15;3.22;;;46.00;30.80;;;;;;4901366;29;20020;-89
2023/08/17 10:19:08;;;;;;;7.75;3.15;;;46.10;31.40;;;;;;4863761;29;20108;-88
2023/08/17 10:21:43;;;;;;;4.28;2.83;;;46.30;31.20;;;;;;4914981;29;20084;-88
2023/08/17 10:24:09;;;;;;;;;;;45.50;31.20;;;;;;4907063;29;20104;-88
2023/08/17 10:26:35;;;;;;;7.55;3.25;;;44.60;31.50;;;;;;4901886;29;20377;-89
2023/08/17 10:29:02;;;;;;;;;;;42.40;32.50;;;;;;4909924;29;20033;-88
2023/08/17 10:31:33;;;;;;;6.15;3.63;;;40.60;33.30;;;;;;4899232;29;19998;-88
2023/08/17 10:34:01;;;;;;;6.75;3.47;;;38.50;35.50;;;;;;4900292;29;20025;-89
2023/08/17 10:36:28;;;;;;;6.32;3.80;;;;;;;;;;4899484;29;20560;-87
2023/08/17 10:39:19;;;;;;;9.13;3.67;;;36.70;37.70;;;;;;4900121;29;20036;-87
2023/08/17 10:41:47;;;;;;;17.25;5.07;;;34.00;41.50;;;;;;4909358;29;20080;-88
2023/08/17 10:44:13;;;;;;;10.23;4.68;;;33.20;42.70;;;;;;4904669;29;20097;-88
2023/08/17 10:46:43;;;;;;;10.43;4.43;;;;;;;;;;4898262;29;20073;-87
2023/08/17 10:49:25;;;;;;;9.55;4.30;;;;;;;;;;4902491;29;20024;-88
2023/08/17 10:52:02;;;;;;;6.43;3.60;;;;;;;;;;4902527;29;20048;-89
2023/08/17 10:54:37;;;;;;;7.70;4.07;;;32.70;43.60;;;;;;4901949;29;20465;-88
2023/08/17 10:57:31;;;;;;;3.97;3.50;;;30.90;46.20;;;;;;4902526;29;20059;-88
2023/08/17 11:00:16;;;;;;;7.20;3.80;;;30.20;46.30;;;;;;4906983;29;20032;-86
2023/08/17 11:02:53;;;;;;;11.63;4.55;;;29.80;46.90;;;;;;4907440;29;20024;-90
2023/08/17 11:05:48;;;;;;;7.07;4.30;;;29.70;47.80;;;;;;4913328;29;20036;-88
2023/08/17 11:08:24;;;;;;;7.72;4.30;;;29.70;47.80;;;;;;4913720;29;20080;-87
2023/08/17 11:11:03;;;;;;;11.75;4.90;;;29.50;48.40;;;;;;4907957;29;20049;-86
2023/08/17 11:13:31;;;;;;;8.75;4.38;;;29.40;48.60;;;;;;4924518;29;20036;-87
2023/08/17 11:15:58;;;;;;;9.25;4.80;;;29.40;48.40;;;;;;4923003;29;20028;-89
2023/08/17 11:18:24;;;;;;;8.52;4.75;;;29.30;48.90;;;;;;4919776;29;20380;-88
2023/08/17 11:20:51;;;;;;;7.07;4.60;;;29.10;49.40;;;;;;4917169;29;20008;-86
2023/08/17 11:23:18;;;;;;;10.05;5.07;;;29.00;49.60;;;;;;4928692;29;20059;-90
2023/08/17 11:25:44;;;;;;;5.28;4.43;;;29.00;49.70;;;;;;4916733;29;20008;-88
2023/08/17 11:28:10;;;;;;;7.22;4.88;;;28.90;49.70;;;;;;4912450;29;20039;-86
2023/08/17 11:30:38;;;;;;;8.27;4.55;;;28.90;50.20;;;;;;4901445;29;20032;-86
2023/08/17 11:33:05;;;;;;;5.80;5.15;;;28.90;50.00;;;;;;4915018;29;20071;-86
2023/08/17 11:35:31;;;;;;;8.43;4.50;;;28.90;49.80;;;;;;4905677;29;20032;-87
2023/08/17 11:37:57;;;;;;;7.47;4.73;;;28.80;49.70;;;;;;4902662;29;20025;-86
2023/08/17 11:40:24;;;;;;;8.50;5.13;;;28.70;50.00;;;;;;4909966;29;20172;-87
2023/08/17 11:42:51;;;;;;;7.90;4.70;;;;;;;;;;4900825;29;20087;-88
2023/08/17 11:45:17;;;;;;;7.13;5.13;;;;;;;;;;4903458;29;20371;-88
2023/08/17 11:47:43;;;;;;;7.55;4.47;;;;;;;;;;4902004;29;20448;-86
2023/08/17 11:50:13;;;;;;;9.73;3.97;;;;;;;;;;4904244;29;20647;-86
2023/08/17 11:52:39;;;;;;;9.65;4.15;;;;;;;;;;4901588;29;20250;-87
2023/08/17 11:55:09;;;;;;;8.60;4.40;;;;;;;;;;4909128;29;20064;-87
2023/08/17 11:57:38;;;;;;;5.00;4.40;;;;;;;;;;4919578;29;20504;-87
2023/08/17 12:00:12;;;;;;;7.20;4.88;;;;;;;;;;4899765;29;20052;-87
2023/08/17 12:02:42;;;;;;;8.45;4.72;;;;;;;;;;4900071;29;20055;-87
2023/08/17 12:05:09;;;;;;;7.25;4.32;;;;;;;;;;4902012;29;20108;-85
2023/08/17 12:07:35;;;;;;;7.75;4.78;;;;;;;;;;4908896;29;20029;-86
2023/08/17 12:10:05;;;;;;;8.23;4.47;;;;;;;;;;4902791;29;20414;-85
2023/08/17 12:12:31;;;;;;;10.65;5.20;;;;;;;;;;4900863;29;20083;-87
2023/08/17 12:14:58;;;;;;;10.07;4.93;;;;;;;;;;4900822;29;20025;-86
2023/08/17 12:17:25;;;;;;;8.90;5.25;;;;;;;;;;4901580;29;20072;-86
2023/08/17 12:19:54;;;;;;;11.43;4.68;;;;;;;;;;4901098;29;20480;-85
2023/08/17 12:22:23;;;;;;;6.22;4.47;;;;;;;;;;4900885;29;20085;-87
2023/08/17 12:24:50;;;;;;;7.28;5.25;;;;;;;;;;4901891;29;20044;-89
2023/08/17 12:27:16;;;;;;;8.35;4.90;;;;;;;;;;4899260;29;20023;-87
2023/08/17 12:29:48;;;;;;;8.25;4.47;;;;;;;;;;4900430;29;20040;-89
2023/08/17 12:32:17;;;;;;;8.35;4.97;;;;;;;;;;4900414;29;20024;-88
2023/08/17 12:34:44;;;;;;;10.18;5.35;;;;;;;;;;4911596;29;20028;-90
2023/08/17 12:37:10;;;;;;;9.57;4.63;;;;;;;;;;4901929;29;20394;-88
2023/08/17 12:39:36;;;;;;;8.68;5.00;;;;;;;;;;4901262;29;20028;-85
2023/08/17 12:42:05;;;;;;;10.70;4.50;;;;;;;;;;4905601;29;20047;-87
2023/08/17 12:44:32;;;;;;;11.20;4.35;;;;;;;;;;4910385;29;20036;-86
2023/08/17 12:46:58;;;;;;;7.40;4.68;;;;;;;;;;4900710;29;20479;-87
2023/08/17 12:49:27;;;;;;;6.75;4.07;;;;;;;;;;4899974;29;20032;-89
2023/08/17 12:51:53;;;;;;;7.38;4.60;;;;;;;;;;4901504;29;20044;-87
2023/08/17 12:54:19;;;;;;;8.13;4.85;;;;;;;;;;4903632;29;20070;-88
2023/08/17 12:56:45;;;;;;;7.13;4.03;;;;;;;;;;4903270;29;20485;-88